sensor_id;sensor_type;location;lat;lon;timestamp;temperature;humidity
13589;DHT22;6865;52.552;13.434;2024-03-23T00:54:00;7.90;99.90
13589;DHT22;6865;52.552;13.434;2024-03-23T00:56:26;7.90;99.90
13589;DHT22;6865;52.552;13.434;2024-03-23T00:58:51;7.90;99.90
13589;DHT22;6865;52.552;13.434;2024-03-23T01:01:17;7.80;99.90
13589;DHT22;6865;52.552;13.434;2024-03-23T01:03:43;7.80;99.90
13589;DHT22;6865;52.552;13.434;2024-03-23T01:06:08;7.80;99.90
13589;DHT22;6865;52.552;13.434;2024-03-23T01:08:34;7.90;99.90
13589;DHT22;6865;52.552;13.434;2024-03-23T01:11:00;7.80;99.90
13589;DHT22;6865;52.552;13.434;2024-03-23T01:13:28;7.80;99.90
13589;DHT22;6865;52.552;13.434;2024-03-23T01:15:55;7.80;99.90
13589;DHT22;6865;52.552;13.434;2024-03-23T01:18:22;7.90;99.90
13589;DHT22;6865;52.552;13.434;2024-03-23T01:20:48;7.90;99.90
13589;DHT22;6865;52.552;13.434;2024-03-23T01:23:14;8.00;99.90
13589;DHT22;6865;52.552;13.434;2024-03-23T01:25:40;7.90;99.90
13589;DHT22;6865;52.552;13.434;2024-03-23T01:28:06;7.90;99.90
13589;DHT22;6865;52.552;13.434;2024-03-23T01:30:33;7.90;99.90
13589;DHT22;6865;52.552;13.434;2024-03-23T01:32:58;7.90;99.90
13589;DHT22;6865;52.552;13.434;2024-03-23T01:35:24;7.90;99.90
13589;DHT22;6865;52.552;13.434;2024-03-23T01:37:50;7.80;99.90
13589;DHT22;6865;52.552;13.434;2024-03-23T01:40:19;7.90;99.90
13589;DHT22;6865;52.552;13.434;2024-03-23T01:43:04;7.80;99.90
13589;DHT22;6865;52.552;13.434;2024-03-23T01:45:31;7.80;99.90
13589;DHT22;6865;52.552;13.434;2024-03-23T01:47:57;7.80;99.90
13589;DHT22;6865;52.552;13.434;2024-03-23T01:50:23;7.90;99.90
13589;DHT22;6865;52.552;13.434;2024-03-23T01:52:49;7.90;99.90
13589;DHT22;6865;52.552;13.434;2024-03-23T01:55:16;8.00;99.90
13589;DHT22;6865;52.552;13.434;2024-03-23T01:57:42;8.00;99.90
13589;DHT22;6865;52.552;13.434;2024-03-23T02:00:08;7.90;99.90
13589;DHT22;6865;52.552;13.434;2024-03-23T02:02:45;7.90;99.90
13589;DHT22;6865;52.552;13.434;2024-03-23T02:05:11;7.90;99.90
13589;DHT22;6865;52.552;13.434;2024-03-23T02:07:41;7.90;99.90
13589;DHT22;6865;52.552;13.434;2024-03-23T02:10:09;7.90;99.90
13589;DHT22;6865;52.552;13.434;2024-03-23T02:12:36;7.80;99.90
13589;DHT22;6865;52.552;13.434;2024-03-23T02:15:02;7.80;99.90
13589;DHT22;6865;52.552;13.434;2024-03-23T02:17:32;7.80;99.90
13589;DHT22;6865;52.552;13.434;2024-03-23T02:19:59;7.70;99.90
13589;DHT22;6865;52.552;13.434;2024-03-23T02:22:34;7.70;99.90
13589;DHT22;6865;52.552;13.434;2024-03-23T02:25:00;7.70;99.90
13589;DHT22;6865;52.552;13.434;2024-03-23T02:27:25;7.70;99.90
13589;DHT22;6865;52.552;13.434;2024-03-23T02:29:51;7.70;99.90
13589;DHT22;6865;52.552;13.434;2024-03-23T02:32:17;7.80;99.90
13589;DHT22;6865;52.552;13.434;2024-03-23T02:34:42;7.20;99.90
13589;DHT22;6865;52.552;13.434;2024-03-23T02:37:11;7.50;99.90
13589;DHT22;6865;52.552;13.434;2024-03-23T02:39:37;8.10;99.90
13589;DHT22;6865;52.552;13.434;2024-03-23T02:42:03;8.10;99.90
13589;DHT22;6865;52.552;13.434;2024-03-23T02:44:29;8.00;99.90
13589;DHT22;6865;52.552;13.434;2024-03-23T02:46:54;7.90;99.90
13589;DHT22;6865;52.552;13.434;2024-03-23T02:49:20;7.80;99.90
13589;DHT22;6865;52.552;13.434;2024-03-23T02:51:47;7.70;99.90
13589;DHT22;6865;52.552;13.434;2024-03-23T02:54:14;7.60;99.90
13589;DHT22;6865;52.552;13.434;2024-03-23T02:56:40;7.60;99.90
13589;DHT22;6865;52.552;13.434;2024-03-23T02:59:06;7.70;99.90
13589;DHT22;6865;52.552;13.434;2024-03-23T03:01:31;7.60;99.90
13589;DHT22;6865;52.552;13.434;2024-03-23T03:03:57;7.60;99.90
13589;DHT22;6865;52.552;13.434;2024-03-23T03:06:24;7.60;99.90
13589;DHT22;6865;52.552;13.434;2024-03-23T03:08:50;7.60;99.90
13589;DHT22;6865;52.552;13.434;2024-03-23T03:11:15;7.70;99.90
13589;DHT22;6865;52.552;13.434;2024-03-23T03:13:41;7.70;99.90
13589;DHT22;6865;52.552;13.434;2024-03-23T03:16:09;7.70;99.90
13589;DHT22;6865;52.552;13.434;2024-03-23T03:18:35;7.90;99.90
13589;DHT22;6865;52.552;13.434;2024-03-23T03:21:01;7.70;99.90
13589;DHT22;6865;52.552;13.434;2024-03-23T03:23:27;7.70;99.90
13589;DHT22;6865;52.552;13.434;2024-03-23T03:25:53;7.70;99.90
13589;DHT22;6865;52.552;13.434;2024-03-23T03:28:19;7.70;99.90
13589;DHT22;6865;52.552;13.434;2024-03-23T03:30:45;7.70;99.90
13589;DHT22;6865;52.552;13.434;2024-03-23T03:33:11;7.60;99.90
13589;DHT22;6865;52.552;13.434;2024-03-23T03:35:36;7.70;99.90
13589;DHT22;6865;52.552;13.434;2024-03-23T03:38:04;7.60;99.90
13589;DHT22;6865;52.552;13.434;2024-03-23T03:40:30;7.70;99.90
13589;DHT22;6865;52.552;13.434;2024-03-23T03:42:56;7.70;99.90
13589;DHT22;6865;52.552;13.434;2024-03-23T03:45:21;7.60;99.90
13589;DHT22;6865;52.552;13.434;2024-03-23T03:47:47;7.60;99.90
13589;DHT22;6865;52.552;13.434;2024-03-23T03:50:13;7.40;99.90
13589;DHT22;6865;52.552;13.434;2024-03-23T03:52:38;7.40;99.90
13589;DHT22;6865;52.552;13.434;2024-03-23T03:55:12;7.40;99.90
13589;DHT22;6865;52.552;13.434;2024-03-23T03:57:38;7.30;99.90
13589;DHT22;6865;52.552;13.434;2024-03-23T04:00:04;7.30;99.90
13589;DHT22;6865;52.552;13.434;2024-03-23T04:02:30;7.20;99.90
13589;DHT22;6865;52.552;13.434;2024-03-23T04:04:56;7.30;99.90
13589;DHT22;6865;52.552;13.434;2024-03-23T04:07:21;7.30;99.90
13589;DHT22;6865;52.552;13.434;2024-03-23T04:09:48;7.20;99.90
13589;DHT22;6865;52.552;13.434;2024-03-23T04:12:15;7.20;99.90
13589;DHT22;6865;52.552;13.434;2024-03-23T04:14:40;7.20;99.90
13589;DHT22;6865;52.552;13.434;2024-03-23T04:17:06;7.20;99.90
13589;DHT22;6865;52.552;13.434;2024-03-23T04:19:32;7.30;99.90
13589;DHT22;6865;52.552;13.434;2024-03-23T04:21:58;7.30;99.90
13589;DHT22;6865;52.552;13.434;2024-03-23T04:24:23;7.30;99.90
13589;DHT22;6865;52.552;13.434;2024-03-23T04:26:51;7.30;99.90
13589;DHT22;6865;52.552;13.434;2024-03-23T04:29:17;7.30;99.90
13589;DHT22;6865;52.552;13.434;2024-03-23T04:31:43;6.80;99.90
13589;DHT22;6865;52.552;13.434;2024-03-23T04:34:09;7.30;99.90
13589;DHT22;6865;52.552;13.434;2024-03-23T04:36:34;7.30;99.90
13589;DHT22;6865;52.552;13.434;2024-03-23T04:39:00;7.30;99.90
13589;DHT22;6865;52.552;13.434;2024-03-23T04:41:26;7.30;99.90
13589;DHT22;6865;52.552;13.434;2024-03-23T04:43:52;7.20;99.90
13589;DHT22;6865;52.552;13.434;2024-03-23T04:46:18;7.10;99.90
13589;DHT22;6865;52.552;13.434;2024-03-23T04:48:43;6.70;99.90
13589;DHT22;6865;52.552;13.434;2024-03-23T04:51:21;7.20;99.90
13589;DHT22;6865;52.552;13.434;2024-03-23T04:53:47;7.20;99.90
13589;DHT22;6865;52.552;13.434;2024-03-23T04:56:14;7.10;99.90
13589;DHT22;6865;52.552;13.434;2024-03-23T04:58:40;7.00;99.90
13589;DHT22;6865;52.552;13.434;2024-03-23T05:01:06;7.00;99.90
13589;DHT22;6865;52.552;13.434;2024-03-23T05:03:32;6.90;99.90
13589;DHT22;6865;52.552;13.434;2024-03-23T05:05:57;7.00;99.90
13589;DHT22;6865;52.552;13.434;2024-03-23T05:08:24;7.00;99.90
13589;DHT22;6865;52.552;13.434;2024-03-23T05:10:49;7.00;99.90
13589;DHT22;6865;52.552;13.434;2024-03-23T05:13:15;7.10;99.90
13589;DHT22;6865;52.552;13.434;2024-03-23T05:15:41;7.10;99.90
13589;DHT22;6865;52.552;13.434;2024-03-23T05:18:07;7.10;99.90
13589;DHT22;6865;52.552;13.434;2024-03-23T05:20:32;6.90;99.90
13589;DHT22;6865;52.552;13.434;2024-03-23T05:22:58;6.90;99.90
13589;DHT22;6865;52.552;13.434;2024-03-23T05:25:24;6.90;99.90
13589;DHT22;6865;52.552;13.434;2024-03-23T05:27:50;6.90;99.90
13589;DHT22;6865;52.552;13.434;2024-03-23T05:30:15;6.90;99.90
13589;DHT22;6865;52.552;13.434;2024-03-23T05:32:41;7.00;99.90
13589;DHT22;6865;52.552;13.434;2024-03-23T05:35:09;7.00;99.90
13589;DHT22;6865;52.552;13.434;2024-03-23T05:37:35;7.00;99.90
13589;DHT22;6865;52.552;13.434;2024-03-23T05:40:01;6.90;99.90
13589;DHT22;6865;52.552;13.434;2024-03-23T05:42:29;6.90;99.90
13589;DHT22;6865;52.552;13.434;2024-03-23T05:44:55;6.90;99.90
13589;DHT22;6865;52.552;13.434;2024-03-23T05:47:20;7.00;99.90
13589;DHT22;6865;52.552;13.434;2024-03-23T05:49:46;7.00;99.90
13589;DHT22;6865;52.552;13.434;2024-03-23T05:52:13;7.00;99.90
13589;DHT22;6865;52.552;13.434;2024-03-23T05:54:38;7.00;99.90
13589;DHT22;6865;52.552;13.434;2024-03-23T05:57:04;7.00;99.90
13589;DHT22;6865;52.552;13.434;2024-03-23T05:59:33;7.10;99.90
13589;DHT22;6865;52.552;13.434;2024-03-23T06:01:59;7.10;99.90
13589;DHT22;6865;52.552;13.434;2024-03-23T06:04:24;6.50;99.90
13589;DHT22;6865;52.552;13.434;2024-03-23T06:06:51;7.10;99.90
13589;DHT22;6865;52.552;13.434;2024-03-23T06:09:20;7.20;99.90
13589;DHT22;6865;52.552;13.434;2024-03-23T06:11:46;7.20;99.90
13589;DHT22;6865;52.552;13.434;2024-03-23T06:14:12;7.20;99.90
13589;DHT22;6865;52.552;13.434;2024-03-23T06:16:37;7.20;99.90
13589;DHT22;6865;52.552;13.434;2024-03-23T06:19:03;7.30;99.90
13589;DHT22;6865;52.552;13.434;2024-03-23T06:21:32;7.30;99.90
13589;DHT22;6865;52.552;13.434;2024-03-23T06:23:58;7.30;99.90
13589;DHT22;6865;52.552;13.434;2024-03-23T06:26:24;7.30;99.90
13589;DHT22;6865;52.552;13.434;2024-03-23T06:28:50;7.30;99.90
13589;DHT22;6865;52.552;13.434;2024-03-23T06:31:16;7.30;99.90
13589;DHT22;6865;52.552;13.434;2024-03-23T06:33:41;7.20;99.90
13589;DHT22;6865;52.552;13.434;2024-03-23T06:36:09;7.20;99.90
13589;DHT22;6865;52.552;13.434;2024-03-23T06:38:36;7.20;99.90
13589;DHT22;6865;52.552;13.434;2024-03-23T06:41:05;7.20;99.90
13589;DHT22;6865;52.552;13.434;2024-03-23T06:43:31;7.20;99.90
13589;DHT22;6865;52.552;13.434;2024-03-23T06:45:57;7.20;99.90
13589;DHT22;6865;52.552;13.434;2024-03-23T06:48:23;7.20;99.90
13589;DHT22;6865;52.552;13.434;2024-03-23T06:50:49;7.20;99.90
13589;DHT22;6865;52.552;13.434;2024-03-23T06:53:15;7.30;99.90
13589;DHT22;6865;52.552;13.434;2024-03-23T06:55:41;7.30;99.90
13589;DHT22;6865;52.552;13.434;2024-03-23T06:58:07;7.30;99.90
13589;DHT22;6865;52.552;13.434;2024-03-23T07:00:33;7.30;99.90
13589;DHT22;6865;52.552;13.434;2024-03-23T07:03:02;7.40;99.90
13589;DHT22;6865;52.552;13.434;2024-03-23T07:05:29;7.80;99.90
13589;DHT22;6865;52.552;13.434;2024-03-23T07:07:55;7.50;99.90
13589;DHT22;6865;52.552;13.434;2024-03-23T07:10:20;7.50;99.90
13589;DHT22;6865;52.552;13.434;2024-03-23T07:12:46;7.50;99.90
13589;DHT22;6865;52.552;13.434;2024-03-23T07:15:12;7.50;99.90
13589;DHT22;6865;52.552;13.434;2024-03-23T07:17:37;7.50;99.90
13589;DHT22;6865;52.552;13.434;2024-03-23T07:20:04;7.60;99.90
13589;DHT22;6865;52.552;13.434;2024-03-23T07:22:33;7.60;99.90
13589;DHT22;6865;52.552;13.434;2024-03-23T07:25:02;7.50;99.90
13589;DHT22;6865;52.552;13.434;2024-03-23T07:27:28;7.50;99.90
13589;DHT22;6865;52.552;13.434;2024-03-23T07:29:54;7.40;99.90
13589;DHT22;6865;52.552;13.434;2024-03-23T07:32:20;7.40;99.90
13589;DHT22;6865;52.552;13.434;2024-03-23T07:34:46;7.50;99.90
13589;DHT22;6865;52.552;13.434;2024-03-23T07:37:12;7.50;99.90
13589;DHT22;6865;52.552;13.434;2024-03-23T07:39:39;7.50;99.90
13589;DHT22;6865;52.552;13.434;2024-03-23T07:42:05;7.40;99.90
13589;DHT22;6865;52.552;13.434;2024-03-23T07:44:31;7.40;99.90
13589;DHT22;6865;52.552;13.434;2024-03-23T07:46:58;7.50;99.90
13589;DHT22;6865;52.552;13.434;2024-03-23T07:49:24;7.50;99.90
13589;DHT22;6865;52.552;13.434;2024-03-23T07:51:49;7.60;99.90
13589;DHT22;6865;52.552;13.434;2024-03-23T07:54:15;7.60;99.90
13589;DHT22;6865;52.552;13.434;2024-03-23T07:56:41;7.60;99.90
13589;DHT22;6865;52.552;13.434;2024-03-23T07:59:07;7.50;99.90
13589;DHT22;6865;52.552;13.434;2024-03-23T08:01:33;7.50;99.90
13589;DHT22;6865;52.552;13.434;2024-03-23T08:03:59;7.50;99.90
13589;DHT22;6865;52.552;13.434;2024-03-23T08:06:24;7.40;99.90
13589;DHT22;6865;52.552;13.434;2024-03-23T08:08:53;7.40;99.90
13589;DHT22;6865;52.552;13.434;2024-03-23T08:11:32;7.30;99.90
13589;DHT22;6865;52.552;13.434;2024-03-23T08:14:00;7.20;99.90
13589;DHT22;6865;52.552;13.434;2024-03-23T08:16:27;7.20;99.90
13589;DHT22;6865;52.552;13.434;2024-03-23T08:18:53;7.20;99.90
13589;DHT22;6865;52.552;13.434;2024-03-23T08:21:21;7.10;99.90
13589;DHT22;6865;52.552;13.434;2024-03-23T08:23:46;7.10;99.90
13589;DHT22;6865;52.552;13.434;2024-03-23T08:26:15;7.10;99.90
13589;DHT22;6865;52.552;13.434;2024-03-23T08:28:41;7.00;99.90
13589;DHT22;6865;52.552;13.434;2024-03-23T08:31:08;7.00;99.90
13589;DHT22;6865;52.552;13.434;2024-03-23T08:33:34;7.00;99.90
13589;DHT22;6865;52.552;13.434;2024-03-23T08:36:04;6.90;99.90
13589;DHT22;6865;52.552;13.434;2024-03-23T08:38:31;6.90;99.90
13589;DHT22;6865;52.552;13.434;2024-03-23T08:43:24;6.80;99.90
13589;DHT22;6865;52.552;13.434;2024-03-23T08:45:49;6.80;99.90
13589;DHT22;6865;52.552;13.434;2024-03-23T08:48:15;6.70;99.90
13589;DHT22;6865;52.552;13.434;2024-03-23T08:50:41;6.60;99.90
13589;DHT22;6865;52.552;13.434;2024-03-23T08:53:07;6.50;99.90
13589;DHT22;6865;52.552;13.434;2024-03-23T08:55:33;6.60;99.90
13589;DHT22;6865;52.552;13.434;2024-03-23T08:57:59;6.50;99.90
13589;DHT22;6865;52.552;13.434;2024-03-23T09:00:26;6.30;99.90
13589;DHT22;6865;52.552;13.434;2024-03-23T09:02:51;6.40;99.90
13589;DHT22;6865;52.552;13.434;2024-03-23T09:05:18;6.40;99.90
13589;DHT22;6865;52.552;13.434;2024-03-23T09:07:44;6.30;99.90
13589;DHT22;6865;52.552;13.434;2024-03-23T09:10:09;6.30;99.90
13589;DHT22;6865;52.552;13.434;2024-03-23T09:12:35;6.20;99.90
13589;DHT22;6865;52.552;13.434;2024-03-23T09:15:01;6.20;99.90
13589;DHT22;6865;52.552;13.434;2024-03-23T09:17:27;6.10;99.90
13589;DHT22;6865;52.552;13.434;2024-03-23T09:19:52;6.40;99.90
13589;DHT22;6865;52.552;13.434;2024-03-23T09:22:18;6.20;99.90
13589;DHT22;6865;52.552;13.434;2024-03-23T09:24:44;6.00;99.90
13589;DHT22;6865;52.552;13.434;2024-03-23T09:27:09;6.00;99.90
13589;DHT22;6865;52.552;13.434;2024-03-23T09:29:35;6.00;99.90
13589;DHT22;6865;52.552;13.434;2024-03-23T09:32:01;6.00;99.90
13589;DHT22;6865;52.552;13.434;2024-03-23T09:34:26;5.90;99.90
13589;DHT22;6865;52.552;13.434;2024-03-23T09:36:52;6.00;99.90
13589;DHT22;6865;52.552;13.434;2024-03-23T09:39:18;5.90;99.90
13589;DHT22;6865;52.552;13.434;2024-03-23T09:41:45;5.80;99.90
13589;DHT22;6865;52.552;13.434;2024-03-23T09:44:11;5.60;99.90
13589;DHT22;6865;52.552;13.434;2024-03-23T09:46:38;5.80;99.90
13589;DHT22;6865;52.552;13.434;2024-03-23T09:49:06;5.70;99.90
13589;DHT22;6865;52.552;13.434;2024-03-23T09:51:38;5.80;99.90
13589;DHT22;6865;52.552;13.434;2024-03-23T09:54:04;5.70;99.90
13589;DHT22;6865;52.552;13.434;2024-03-23T09:56:30;5.80;99.90
13589;DHT22;6865;52.552;13.434;2024-03-23T09:59:03;5.80;99.90
13589;DHT22;6865;52.552;13.434;2024-03-23T10:01:32;5.70;99.90
13589;DHT22;6865;52.552;13.434;2024-03-23T10:03:58;5.60;99.90
13589;DHT22;6865;52.552;13.434;2024-03-23T10:06:24;3.90;99.90
13589;DHT22;6865;52.552;13.434;2024-03-23T10:08:51;5.60;99.90
13589;DHT22;6865;52.552;13.434;2024-03-23T10:11:18;5.30;99.90
13589;DHT22;6865;52.552;13.434;2024-03-23T10:13:44;5.50;99.90
13589;DHT22;6865;52.552;13.434;2024-03-23T10:16:12;5.50;99.90
13589;DHT22;6865;52.552;13.434;2024-03-23T10:18:46;5.50;99.90
13589;DHT22;6865;52.552;13.434;2024-03-23T10:21:13;5.30;99.90
13589;DHT22;6865;52.552;13.434;2024-03-23T10:23:41;5.40;99.90
13589;DHT22;6865;52.552;13.434;2024-03-23T10:29:00;5.40;99.90
13589;DHT22;6865;52.552;13.434;2024-03-23T10:31:28;5.40;99.90
13589;DHT22;6865;52.552;13.434;2024-03-23T10:33:54;4.10;99.90
13589;DHT22;6865;52.552;13.434;2024-03-23T10:36:21;5.40;99.90
13589;DHT22;6865;52.552;13.434;2024-03-23T10:38:47;5.40;99.90
13589;DHT22;6865;52.552;13.434;2024-03-23T10:41:15;5.40;99.90
13589;DHT22;6865;52.552;13.434;2024-03-23T10:43:43;3.40;99.90
13589;DHT22;6865;52.552;13.434;2024-03-23T10:46:10;5.40;99.90
13589;DHT22;6865;52.552;13.434;2024-03-23T10:48:36;5.40;99.90
13589;DHT22;6865;52.552;13.434;2024-03-23T10:51:02;5.40;99.90
13589;DHT22;6865;52.552;13.434;2024-03-23T10:53:28;5.30;99.90
13589;DHT22;6865;52.552;13.434;2024-03-23T10:55:55;5.30;99.90
13589;DHT22;6865;52.552;13.434;2024-03-23T10:58:40;5.20;99.90
13589;DHT22;6865;52.552;13.434;2024-03-23T11:01:07;5.20;99.90
13589;DHT22;6865;52.552;13.434;2024-03-23T11:03:37;5.30;99.90
13589;DHT22;6865;52.552;13.434;2024-03-23T11:06:07;5.30;99.90
13589;DHT22;6865;52.552;13.434;2024-03-23T11:08:40;5.30;99.90
13589;DHT22;6865;52.552;13.434;2024-03-23T11:11:18;5.40;99.90
13589;DHT22;6865;52.552;13.434;2024-03-23T11:13:47;5.40;99.90
13589;DHT22;6865;52.552;13.434;2024-03-23T11:16:21;5.50;99.90
13589;DHT22;6865;52.552;13.434;2024-03-23T11:18:48;5.60;99.90
13589;DHT22;6865;52.552;13.434;2024-03-23T11:21:55;5.80;99.90
13589;DHT22;6865;52.552;13.434;2024-03-23T11:24:21;6.00;99.90
13589;DHT22;6865;52.552;13.434;2024-03-23T11:26:48;6.00;99.90
13589;DHT22;6865;52.552;13.434;2024-03-23T11:29:15;6.10;99.90
13589;DHT22;6865;52.552;13.434;2024-03-23T11:31:49;5.70;99.90
13589;DHT22;6865;52.552;13.434;2024-03-23T11:34:15;5.50;99.90
13589;DHT22;6865;52.552;13.434;2024-03-23T11:36:45;6.00;99.90
13589;DHT22;6865;52.552;13.434;2024-03-23T11:39:15;6.10;99.90
13589;DHT22;6865;52.552;13.434;2024-03-23T11:41:56;6.20;99.90
13589;DHT22;6865;52.552;13.434;2024-03-23T11:44:26;6.20;99.90
13589;DHT22;6865;52.552;13.434;2024-03-23T11:46:53;6.20;99.90
13589;DHT22;6865;52.552;13.434;2024-03-23T11:49:23;6.30;99.90
13589;DHT22;6865;52.552;13.434;2024-03-23T11:51:49;6.10;99.90
13589;DHT22;6865;52.552;13.434;2024-03-23T11:54:15;6.50;99.90
13589;DHT22;6865;52.552;13.434;2024-03-23T11:56:57;6.70;99.90
13589;DHT22;6865;52.552;13.434;2024-03-23T11:59:35;6.90;99.90
13589;DHT22;6865;52.552;13.434;2024-03-23T12:02:09;7.10;99.90
13589;DHT22;6865;52.552;13.434;2024-03-23T12:04:37;8.00;99.90
13589;DHT22;6865;52.552;13.434;2024-03-23T12:07:12;7.40;99.90
13589;DHT22;6865;52.552;13.434;2024-03-23T12:09:40;6.00;99.90
13589;DHT22;6865;52.552;13.434;2024-03-23T12:12:17;7.10;99.90
13589;DHT22;6865;52.552;13.434;2024-03-23T12:14:44;7.00;99.90
13589;DHT22;6865;52.552;13.434;2024-03-23T12:17:12;6.90;99.90
13589;DHT22;6865;52.552;13.434;2024-03-23T12:19:38;7.00;99.90
13589;DHT22;6865;52.552;13.434;2024-03-23T12:22:05;6.90;99.90
13589;DHT22;6865;52.552;13.434;2024-03-23T12:24:32;7.00;99.90
13589;DHT22;6865;52.552;13.434;2024-03-23T12:27:05;6.80;99.90
13589;DHT22;6865;52.552;13.434;2024-03-23T12:29:31;6.70;99.90
13589;DHT22;6865;52.552;13.434;2024-03-23T12:32:01;6.70;99.90
13589;DHT22;6865;52.552;13.434;2024-03-23T12:34:28;6.80;99.90
13589;DHT22;6865;52.552;13.434;2024-03-23T12:36:54;6.80;99.90
13589;DHT22;6865;52.552;13.434;2024-03-23T12:39:20;6.80;99.90
13589;DHT22;6865;52.552;13.434;2024-03-23T12:41:47;6.60;99.90
13589;DHT22;6865;52.552;13.434;2024-03-23T12:44:13;7.10;99.90
13589;DHT22;6865;52.552;13.434;2024-03-23T12:46:39;7.10;99.90
13589;DHT22;6865;52.552;13.434;2024-03-23T12:49:05;7.10;99.90
13589;DHT22;6865;52.552;13.434;2024-03-23T12:51:32;7.20;99.90
13589;DHT22;6865;52.552;13.434;2024-03-23T12:53:58;7.10;99.90
13589;DHT22;6865;52.552;13.434;2024-03-23T12:56:23;7.10;99.90
13589;DHT22;6865;52.552;13.434;2024-03-23T12:58:49;7.10;99.90
13589;DHT22;6865;52.552;13.434;2024-03-23T13:01:20;7.10;99.90
13589;DHT22;6865;52.552;13.434;2024-03-23T13:03:49;7.20;99.90
13589;DHT22;6865;52.552;13.434;2024-03-23T13:06:16;7.20;99.90
13589;DHT22;6865;52.552;13.434;2024-03-23T13:08:44;7.30;99.90
13589;DHT22;6865;52.552;13.434;2024-03-23T13:11:10;7.40;99.90
13589;DHT22;6865;52.552;13.434;2024-03-23T13:13:40;7.60;99.90
13589;DHT22;6865;52.552;13.434;2024-03-23T13:16:07;7.60;99.90
13589;DHT22;6865;52.552;13.434;2024-03-23T13:18:33;7.00;99.90
13589;DHT22;6865;52.552;13.434;2024-03-23T13:20:59;7.60;99.90
13589;DHT22;6865;52.552;13.434;2024-03-23T13:23:25;7.70;99.90
13589;DHT22;6865;52.552;13.434;2024-03-23T13:25:52;7.60;99.90
13589;DHT22;6865;52.552;13.434;2024-03-23T13:28:24;7.60;99.90
13589;DHT22;6865;52.552;13.434;2024-03-23T13:30:51;7.70;99.90
13589;DHT22;6865;52.552;13.434;2024-03-23T13:33:17;7.90;99.90
13589;DHT22;6865;52.552;13.434;2024-03-23T13:35:49;8.10;99.90
13589;DHT22;6865;52.552;13.434;2024-03-23T13:38:15;8.10;99.90
13589;DHT22;6865;52.552;13.434;2024-03-23T13:40:58;8.10;99.90
13589;DHT22;6865;52.552;13.434;2024-03-23T13:43:26;8.10;99.90
13589;DHT22;6865;52.552;13.434;2024-03-23T13:45:56;8.00;99.90
13589;DHT22;6865;52.552;13.434;2024-03-23T13:48:27;8.10;99.90
13589;DHT22;6865;52.552;13.434;2024-03-23T13:51:05;8.20;99.90
13589;DHT22;6865;52.552;13.434;2024-03-23T13:53:31;8.20;99.90
13589;DHT22;6865;52.552;13.434;2024-03-23T13:55:58;8.30;99.90
13589;DHT22;6865;52.552;13.434;2024-03-23T13:58:24;8.30;99.90
13589;DHT22;6865;52.552;13.434;2024-03-23T14:00:52;10.00;99.90
13589;DHT22;6865;52.552;13.434;2024-03-23T14:03:18;8.30;99.90
13589;DHT22;6865;52.552;13.434;2024-03-23T14:05:44;8.40;99.90
13589;DHT22;6865;52.552;13.434;2024-03-23T14:08:11;8.70;99.90
13589;DHT22;6865;52.552;13.434;2024-03-23T14:10:40;8.70;99.90
13589;DHT22;6865;52.552;13.434;2024-03-23T14:13:06;8.70;99.90
13589;DHT22;6865;52.552;13.434;2024-03-23T14:15:32;8.60;99.90
13589;DHT22;6865;52.552;13.434;2024-03-23T14:17:58;8.60;99.90
13589;DHT22;6865;52.552;13.434;2024-03-23T14:20:24;8.60;99.90
13589;DHT22;6865;52.552;13.434;2024-03-23T14:22:51;8.40;99.90
13589;DHT22;6865;52.552;13.434;2024-03-23T14:25:17;8.40;99.90
13589;DHT22;6865;52.552;13.434;2024-03-23T14:27:46;8.40;99.90
13589;DHT22;6865;52.552;13.434;2024-03-23T14:30:13;8.40;99.90
13589;DHT22;6865;52.552;13.434;2024-03-23T14:32:39;8.40;99.90
13589;DHT22;6865;52.552;13.434;2024-03-23T14:35:05;8.30;99.90
13589;DHT22;6865;52.552;13.434;2024-03-23T14:37:32;8.10;99.90
13589;DHT22;6865;52.552;13.434;2024-03-23T14:39:58;8.00;99.90
13589;DHT22;6865;52.552;13.434;2024-03-23T14:42:24;7.90;99.90
13589;DHT22;6865;52.552;13.434;2024-03-23T14:44:53;7.80;99.90
13589;DHT22;6865;52.552;13.434;2024-03-23T14:47:19;7.70;99.90
13589;DHT22;6865;52.552;13.434;2024-03-23T14:49:46;7.80;99.90
13589;DHT22;6865;52.552;13.434;2024-03-23T14:52:20;7.70;99.90
13589;DHT22;6865;52.552;13.434;2024-03-23T14:54:46;7.60;99.90
13589;DHT22;6865;52.552;13.434;2024-03-23T14:57:12;7.50;99.90
13589;DHT22;6865;52.552;13.434;2024-03-23T14:59:38;7.40;99.90
13589;DHT22;6865;52.552;13.434;2024-03-23T15:02:04;6.90;99.90
13589;DHT22;6865;52.552;13.434;2024-03-23T15:04:30;6.70;99.90
13589;DHT22;6865;52.552;13.434;2024-03-23T15:06:56;6.50;99.90
13589;DHT22;6865;52.552;13.434;2024-03-23T15:09:22;6.10;99.90
13589;DHT22;6865;52.552;13.434;2024-03-23T15:11:47;6.20;99.90
13589;DHT22;6865;52.552;13.434;2024-03-23T15:14:13;6.30;99.90
13589;DHT22;6865;52.552;13.434;2024-03-23T15:16:39;6.40;99.90
13589;DHT22;6865;52.552;13.434;2024-03-23T15:19:05;6.50;99.90
13589;DHT22;6865;52.552;13.434;2024-03-23T15:21:34;6.60;99.90
13589;DHT22;6865;52.552;13.434;2024-03-23T15:23:59;6.70;99.90
13589;DHT22;6865;52.552;13.434;2024-03-23T15:26:25;6.70;99.90
13589;DHT22;6865;52.552;13.434;2024-03-23T15:28:52;6.70;99.90
13589;DHT22;6865;52.552;13.434;2024-03-23T15:31:24;6.80;99.90
13589;DHT22;6865;52.552;13.434;2024-03-23T15:33:50;6.80;99.90
13589;DHT22;6865;52.552;13.434;2024-03-23T15:36:16;6.80;99.90
13589;DHT22;6865;52.552;13.434;2024-03-23T15:38:42;6.80;99.90
13589;DHT22;6865;52.552;13.434;2024-03-23T15:41:09;6.80;99.90
13589;DHT22;6865;52.552;13.434;2024-03-23T15:43:35;7.00;99.90
13589;DHT22;6865;52.552;13.434;2024-03-23T15:46:03;6.90;99.90
13589;DHT22;6865;52.552;13.434;2024-03-23T15:48:29;7.00;99.90
13589;DHT22;6865;52.552;13.434;2024-03-23T15:50:58;7.00;99.90
13589;DHT22;6865;52.552;13.434;2024-03-23T15:53:25;7.00;99.90
13589;DHT22;6865;52.552;13.434;2024-03-23T15:55:58;7.10;99.90
13589;DHT22;6865;52.552;13.434;2024-03-23T15:58:25;7.10;99.90
13589;DHT22;6865;52.552;13.434;2024-03-23T16:00:58;7.10;99.90
13589;DHT22;6865;52.552;13.434;2024-03-23T16:03:25;7.10;99.90
13589;DHT22;6865;52.552;13.434;2024-03-23T16:05:53;7.00;99.90
13589;DHT22;6865;52.552;13.434;2024-03-23T16:08:19;7.10;99.90
13589;DHT22;6865;52.552;13.434;2024-03-23T16:10:45;7.20;99.90
13589;DHT22;6865;52.552;13.434;2024-03-23T16:13:11;7.10;99.90
13589;DHT22;6865;52.552;13.434;2024-03-23T16:15:37;7.20;99.90
13589;DHT22;6865;52.552;13.434;2024-03-23T16:18:03;7.20;99.90
13589;DHT22;6865;52.552;13.434;2024-03-23T16:20:29;7.20;99.90
13589;DHT22;6865;52.552;13.434;2024-03-23T16:22:56;7.20;99.90
13589;DHT22;6865;52.552;13.434;2024-03-23T16:25:22;7.20;99.90
13589;DHT22;6865;52.552;13.434;2024-03-23T16:27:47;6.60;99.90
13589;DHT22;6865;52.552;13.434;2024-03-23T16:30:13;7.10;99.90
13589;DHT22;6865;52.552;13.434;2024-03-23T16:32:39;7.20;99.90
13589;DHT22;6865;52.552;13.434;2024-03-23T16:35:05;7.10;99.90
13589;DHT22;6865;52.552;13.434;2024-03-23T16:37:31;7.10;99.90
13589;DHT22;6865;52.552;13.434;2024-03-23T16:39:57;7.00;99.90
13589;DHT22;6865;52.552;13.434;2024-03-23T16:42:22;7.00;99.90